createdAt,value
2022-08-25T00:02:37.678Z,100512.78
2022-08-25T00:07:41.671Z,100513.03
2022-08-25T00:12:46.961Z,100523.25
2022-08-25T00:17:50.603Z,100512.44
2022-08-25T00:22:54.533Z,100522.34
2022-08-25T00:27:59.798Z,100523.63
2022-08-25T00:33:03.438Z,100515.69
2022-08-25T00:38:07.154Z,100522.75
2022-08-25T00:43:12.916Z,100532.34
2022-08-25T00:48:16.498Z,100527.41
2022-08-25T00:53:20.073Z,100531.88
2022-08-25T00:58:27.870Z,100530.06
2022-08-25T01:03:33.111Z,100535.31
2022-08-25T01:08:39.738Z,100541.00
2022-08-25T01:13:48.299Z,100551.19
2022-08-25T01:18:54.827Z,100552.53
2022-08-25T01:24:01.178Z,100561.63
2022-08-25T01:29:09.723Z,100562.28
2022-08-25T01:34:14.011Z,100558.00
2022-08-25T01:39:19.367Z,100565.63
2022-08-25T01:44:23.039Z,100566.69
2022-08-25T01:49:26.642Z,100571.50
2022-08-25T01:54:31.915Z,100580.41
2022-08-25T01:59:38.796Z,100588.00
2022-08-25T02:04:44.542Z,100577.84
2022-08-25T02:09:50.876Z,100581.28
2022-08-25T02:14:54.455Z,100587.84
2022-08-25T02:19:58.095Z,100585.81
2022-08-25T02:25:03.932Z,100590.00
2022-08-25T02:30:08.422Z,100588.03
2022-08-25T02:35:12.535Z,100603.28
2022-08-25T02:40:18.215Z,100601.81
2022-08-25T02:45:21.843Z,100608.66
2022-08-25T02:50:25.475Z,100611.41
2022-08-25T02:55:30.711Z,100609.59
2022-08-25T03:00:38.330Z,100627.69
2022-08-25T03:05:42.193Z,100636.56
2022-08-25T03:10:47.482Z,100644.75
2022-08-25T03:15:50.501Z,100638.81
2022-08-25T03:20:55.290Z,100647.09
2022-08-25T03:26:00.653Z,100668.56
2022-08-25T03:31:05.614Z,100664.56
2022-08-25T03:36:09.986Z,100666.28
2022-08-25T03:41:17.603Z,100676.66
2022-08-25T03:46:22.401Z,100686.22
2022-08-25T03:51:28.251Z,100685.00
2022-08-25T03:56:33.537Z,100695.44
2022-08-25T04:01:37.607Z,100699.63
2022-08-25T04:06:41.842Z,100705.47
2022-08-25T04:11:47.061Z,100693.13
2022-08-25T04:16:56.093Z,100699.19
2022-08-25T04:21:59.714Z,100705.97
2022-08-25T04:27:05.141Z,100708.19
2022-08-25T04:32:10.557Z,100721.44
2022-08-25T04:37:14.186Z,100727.81
2022-08-25T04:42:19.395Z,100729.50
2022-08-25T04:47:23.732Z,100726.81
2022-08-25T04:52:27.293Z,100730.56
2022-08-25T04:57:33.862Z,100734.81
2022-08-25T05:02:37.431Z,100736.97
2022-08-25T05:07:41.066Z,100742.25
2022-08-25T05:12:46.446Z,100752.84
2022-08-25T05:17:55.229Z,100753.09
2022-08-25T05:22:59.536Z,100747.53
2022-08-25T05:28:05.168Z,100761.53
2022-08-25T05:33:08.479Z,100755.13
2022-08-25T05:38:15.341Z,100766.44
2022-08-25T05:43:20.835Z,100761.31
2022-08-25T05:48:24.744Z,100771.84
2022-08-25T05:53:29.161Z,100767.22
2022-08-25T05:58:38.784Z,100775.75
2022-08-25T06:03:41.719Z,100778.31
2022-08-25T06:08:45.714Z,100779.25
2022-08-25T06:13:50.917Z,100783.41
2022-08-25T06:18:54.662Z,100795.22
2022-08-25T06:23:58.372Z,100788.16
2022-08-25T06:29:04.313Z,100800.59
2022-08-25T06:34:07.866Z,100804.09
2022-08-25T06:39:12.879Z,100811.06
2022-08-25T06:44:18.118Z,100816.38
2022-08-25T06:49:21.985Z,100809.63
2022-08-25T06:54:25.581Z,100807.00
2022-08-25T06:59:32.449Z,100805.13
2022-08-25T07:04:36.391Z,100811.72
2022-08-25T07:09:40.137Z,100820.13
2022-08-25T07:14:58.107Z,100824.91
2022-08-25T07:20:01.939Z,100824.84
2022-08-25T07:25:06.388Z,100818.19
2022-08-25T07:30:13.789Z,100819.72
2022-08-25T07:35:18.936Z,100821.47
2022-08-25T07:40:26.196Z,100822.81
2022-08-25T07:45:33.375Z,100821.13
2022-08-25T07:50:38.413Z,100824.59
2022-08-25T07:55:42.704Z,100828.16
2022-08-25T08:00:50.952Z,100833.13
2022-08-25T08:05:54.533Z,100838.59
2022-08-25T08:11:04.853Z,100840.97
2022-08-25T08:16:13.238Z,100844.41
2022-08-25T08:21:19.958Z,100840.88
2022-08-25T08:26:36.511Z,100842.25
2022-08-25T08:31:49.835Z,100844.63
2022-08-25T08:36:53.708Z,100844.41
2022-08-25T08:42:11.166Z,100822.72
2022-08-25T08:47:28.365Z,100824.25
2022-08-25T08:52:41.540Z,100829.81
2022-08-25T08:57:50.906Z,100828.28
2022-08-25T09:03:01.025Z,100822.19
2022-08-25T09:08:10.394Z,100833.66
2022-08-25T09:13:26.261Z,100830.91
2022-08-25T09:18:51.002Z,100836.53
2022-08-25T09:24:24.018Z,100831.63
2022-08-25T09:29:36.231Z,100841.22
2022-08-25T09:34:42.984Z,100843.25
2022-08-25T09:39:46.616Z,100842.59
2022-08-25T09:44:50.922Z,100837.34
2022-08-25T09:50:00.202Z,100853.03
2022-08-25T09:55:30.563Z,100839.91
2022-08-25T10:00:36.329Z,100855.25
2022-08-25T10:06:04.142Z,100865.06
2022-08-25T10:11:09.881Z,100867.03
2022-08-25T10:16:25.089Z,100869.28
2022-08-25T10:21:30.558Z,100867.56
2022-08-25T10:26:47.918Z,100872.03
2022-08-25T10:31:57.719Z,100881.09
2022-08-25T10:37:13.031Z,100872.81
2022-08-25T10:42:40.010Z,100872.72
2022-08-25T10:48:11.481Z,100880.81
2022-08-25T10:53:28.918Z,100887.25
2022-08-25T10:58:47.588Z,100897.38
2022-08-25T11:03:56.575Z,100891.28
2022-08-25T11:09:07.823Z,100890.28
2022-08-25T11:14:17.717Z,100887.38
2022-08-25T11:19:27.227Z,100901.25
2022-08-25T11:24:48.617Z,100895.91
2022-08-25T11:30:00.588Z,100889.63
2022-08-25T11:35:06.784Z,100884.13
2022-08-25T11:40:24.002Z,100894.06
2022-08-25T11:45:47.187Z,100901.09
2022-08-25T11:51:02.808Z,100901.84
2022-08-25T11:56:11.648Z,100891.34
2022-08-25T12:01:56.249Z,100901.66
2022-08-25T12:07:25.599Z,100908.50
2022-08-25T12:12:33.303Z,100910.19
2022-08-25T12:17:40.205Z,100922.81
2022-08-25T12:22:57.704Z,100920.47
2022-08-25T12:28:11.006Z,100919.09
2022-08-25T12:33:26.850Z,100929.50
2022-08-25T12:38:34.987Z,100933.25
2022-08-25T12:43:44.467Z,100946.13
2022-08-25T12:54:56.098Z,100937.97
2022-08-25T13:00:10.654Z,100943.44
2022-08-25T13:05:37.015Z,100954.72
2022-08-25T13:10:49.459Z,100966.13
2022-08-25T13:16:03.720Z,100951.78
2022-08-25T13:21:14.883Z,100966.91
2022-08-25T13:26:24.413Z,100971.53
2022-08-25T13:31:31.125Z,100975.16
2022-08-25T13:36:47.045Z,100980.31
2022-08-25T13:41:59.000Z,101004.75
2022-08-25T13:47:12.542Z,101015.38
2022-08-25T13:52:29.490Z,101018.31
2022-08-25T13:57:33.783Z,101019.84
2022-08-25T14:02:45.224Z,101024.09
2022-08-25T14:08:09.112Z,101035.28
2022-08-25T14:13:31.838Z,101041.09
2022-08-25T14:18:37.220Z,101040.28
2022-08-25T14:23:41.329Z,101063.03
2022-08-25T14:28:44.908Z,101068.72
2022-08-25T14:33:56.384Z,101077.88
2022-08-25T14:39:00.306Z,101076.75
2022-08-25T14:44:06.245Z,101081.88
2022-08-25T14:49:16.689Z,101087.97
2022-08-25T14:54:29.010Z,101096.13
2022-08-25T14:59:33.334Z,101114.06
2022-08-25T15:04:39.080Z,101117.56
2022-08-25T15:09:46.171Z,101124.44
2022-08-25T15:14:50.332Z,101135.25
2022-08-25T15:19:55.544Z,101135.72
2022-08-25T15:25:00.462Z,101132.00
2022-08-25T15:30:06.276Z,101133.56
2022-08-25T15:35:12.551Z,101150.53
2022-08-25T15:40:19.519Z,101148.91
2022-08-25T15:45:23.158Z,101150.25
2022-08-25T15:50:29.540Z,101156.16
2022-08-25T15:55:33.292Z,101162.25
2022-08-25T16:00:37.906Z,101165.25
2022-08-25T16:05:47.877Z,101161.47
2022-08-25T16:10:51.803Z,101163.59
2022-08-25T16:15:55.827Z,101168.19
2022-08-25T16:21:01.067Z,101168.00
2022-08-25T16:26:06.548Z,101158.72
2022-08-25T16:31:11.636Z,101173.06
2022-08-25T16:36:18.732Z,101174.63
2022-08-25T16:41:23.618Z,101172.81
2022-08-25T16:46:27.397Z,101184.91
2022-08-25T16:51:32.911Z,101193.25
2022-08-25T16:56:36.491Z,101199.16
2022-08-25T17:01:42.131Z,101200.25
2022-08-25T17:06:51.771Z,101197.28
2022-08-25T17:11:55.841Z,101201.78
2022-08-25T17:16:59.412Z,101201.03
2022-08-25T17:22:06.895Z,101200.47
2022-08-25T17:27:11.222Z,101200.94
2022-08-25T17:32:15.199Z,101200.94
2022-08-25T17:37:20.438Z,101202.81
2022-08-25T17:42:24.870Z,101212.00
2022-08-25T17:47:33.896Z,101207.28
2022-08-25T17:52:39.109Z,101204.13
2022-08-25T17:57:42.750Z,101212.00
2022-08-25T18:02:46.467Z,101212.34
2022-08-25T18:07:52.608Z,101206.50
2022-08-25T18:12:56.196Z,101212.13
2022-08-25T18:17:59.829Z,101219.19
2022-08-25T18:23:09.443Z,101217.78
2022-08-25T18:28:13.466Z,101222.03
2022-08-25T18:33:21.060Z,101224.13
2022-08-25T18:38:26.622Z,101220.31
2022-08-25T18:43:32.033Z,101221.59
2022-08-25T18:48:37.732Z,101223.72
2022-08-25T18:53:49.654Z,101213.56
2022-08-25T18:58:54.246Z,101212.66
2022-08-25T19:03:57.957Z,101216.06
2022-08-25T19:09:03.801Z,101213.69
2022-08-25T19:14:12.126Z,101215.09
2022-08-25T19:19:16.335Z,101205.94
2022-08-25T19:24:22.182Z,101208.16
2022-08-25T19:29:25.923Z,101198.13
2022-08-25T19:34:32.777Z,101192.91
2022-08-25T19:39:39.617Z,101178.69
2022-08-25T19:44:43.391Z,101175.69
2022-08-25T19:49:48.175Z,101175.16
2022-08-25T19:54:53.862Z,101167.41
2022-08-25T19:59:57.595Z,101159.13
2022-08-25T20:05:01.713Z,101149.03
2022-08-25T20:10:14.334Z,101160.50
2022-08-25T20:15:18.177Z,101162.00
2022-08-25T20:20:22.833Z,101164.84
2022-08-25T20:25:28.066Z,101154.06
2022-08-25T20:30:44.393Z,101141.94
2022-08-25T20:35:48.951Z,101138.09
2022-08-25T20:40:54.164Z,101151.22
2022-08-25T20:46:01.407Z,101140.47
2022-08-25T20:51:06.374Z,101127.84
2022-08-25T20:56:14.681Z,101123.31
2022-08-25T21:01:23.134Z,101131.25
2022-08-25T21:06:26.979Z,101123.59
2022-08-25T21:11:32.267Z,101109.75
2022-08-25T21:16:38.120Z,101108.00
2022-08-25T21:21:42.264Z,101100.78
2022-08-25T21:26:50.412Z,101100.91
2022-08-25T21:31:54.243Z,101096.06
2022-08-25T21:37:00.095Z,101085.53
2022-08-25T21:42:06.015Z,101077.97
2022-08-25T21:47:12.769Z,101083.19
2022-08-25T21:52:16.398Z,101075.81
2022-08-25T21:57:23.640Z,101068.63
2022-08-25T22:02:27.600Z,101062.34
2022-08-25T22:07:34.605Z,101055.75
2022-08-25T22:12:43.718Z,101047.97
2022-08-25T22:17:48.077Z,101044.28
2022-08-25T22:22:51.933Z,101048.16
2022-08-25T22:27:57.268Z,101028.63
2022-08-25T22:33:01.275Z,101033.00
2022-08-25T22:38:05.075Z,101022.66
2022-08-25T22:43:10.916Z,101015.28
2022-08-25T22:48:15.267Z,101006.66
2022-08-25T22:53:18.841Z,101002.53
2022-08-25T22:58:24.099Z,100995.28
2022-08-25T23:03:29.723Z,100988.72
2022-08-25T23:08:39.490Z,100985.66
2022-08-25T23:13:46.931Z,100976.09
2022-08-25T23:18:50.581Z,100968.19
2022-08-25T23:23:54.482Z,100960.34
2022-08-25T23:28:59.708Z,100967.88
2022-08-25T23:34:03.309Z,100960.84
2022-08-25T23:39:07.704Z,100959.47
2022-08-25T23:44:17.378Z,100959.72
2022-08-25T23:49:24.147Z,100960.31
2022-08-25T23:54:30.964Z,100958.94
2022-08-25T23:59:38.317Z,100963.06
